createdAt,value
2023-04-03T00:02:29.866Z,3.10
2023-04-03T00:05:01.627Z,3.10
2023-04-03T00:07:33.379Z,3.20
2023-04-03T00:10:07.451Z,3.10
2023-04-03T00:12:39.239Z,3.00
2023-04-03T00:15:13.520Z,3.10
2023-04-03T00:17:45.523Z,3.10
2023-04-03T00:20:17.262Z,3.10
2023-04-03T00:22:49.079Z,3.10
2023-04-03T00:25:22.451Z,3.10
2023-04-03T00:27:55.920Z,3.10
2023-04-03T00:30:28.385Z,3.10
2023-04-03T00:33:01.556Z,3.00
2023-04-03T00:35:34.155Z,3.00
2023-04-03T00:38:05.978Z,2.90
2023-04-03T00:40:45.003Z,2.90
2023-04-03T00:43:20.805Z,2.90
2023-04-03T00:45:56.066Z,2.90
2023-04-03T00:48:32.766Z,2.90
2023-04-03T00:51:08.033Z,2.90
2023-04-03T00:53:46.428Z,2.90
2023-04-03T00:56:23.653Z,2.80
2023-04-03T00:59:01.270Z,2.80
2023-04-03T01:01:34.240Z,2.80
2023-04-03T01:04:07.471Z,2.70
2023-04-03T01:06:41.353Z,2.70
2023-04-03T01:09:12.995Z,2.70
2023-04-03T01:11:46.193Z,2.80
2023-04-03T01:14:18.109Z,2.60
2023-04-03T01:16:57.501Z,2.50
2023-04-03T01:19:30.064Z,2.50
2023-04-03T01:22:21.711Z,2.50
2023-04-03T01:24:54.255Z,2.50
2023-04-03T01:27:27.166Z,2.50
2023-04-03T01:29:59.187Z,2.40
2023-04-03T01:32:32.170Z,2.40
2023-04-03T01:35:04.233Z,2.50
2023-04-03T01:37:36.037Z,2.40
2023-04-03T01:40:09.094Z,2.40
2023-04-03T01:42:40.743Z,2.30
2023-04-03T01:45:14.092Z,2.30
2023-04-03T01:47:47.103Z,2.40
2023-04-03T01:50:18.757Z,2.40
2023-04-03T01:52:50.582Z,2.40
2023-04-03T01:55:22.357Z,2.30
2023-04-03T01:57:54.180Z,2.20
2023-04-03T02:00:25.975Z,2.30
2023-04-03T02:02:59.051Z,2.20
2023-04-03T02:05:31.145Z,2.10
2023-04-03T02:08:03.006Z,2.00
2023-04-03T02:10:35.100Z,2.00
2023-04-03T02:13:07.267Z,2.20
2023-04-03T02:15:41.750Z,2.10
2023-04-03T02:18:14.703Z,2.10
2023-04-03T02:20:46.658Z,2.10
2023-04-03T02:23:18.279Z,1.90
2023-04-03T02:25:50.897Z,1.90
2023-04-03T02:28:22.716Z,1.90
2023-04-03T02:30:54.587Z,2.00
2023-04-03T02:33:27.807Z,2.00
2023-04-03T02:36:01.230Z,1.80
2023-04-03T02:38:33.363Z,1.70
2023-04-03T02:41:07.949Z,1.80
2023-04-03T02:43:40.218Z,1.80
2023-04-03T02:46:11.997Z,1.90
2023-04-03T02:48:45.314Z,1.80
2023-04-03T02:51:17.102Z,1.80
2023-04-03T02:53:48.930Z,1.70
2023-04-03T02:56:21.201Z,1.70
2023-04-03T02:58:59.984Z,1.50
2023-04-03T03:01:33.408Z,1.50
2023-04-03T03:04:07.783Z,1.60
2023-04-03T03:06:39.618Z,1.50
2023-04-03T03:09:11.326Z,1.50
2023-04-03T03:11:43.194Z,1.50
2023-04-03T03:14:14.956Z,1.50
2023-04-03T03:16:46.900Z,1.50
2023-04-03T03:19:20.017Z,1.40
2023-04-03T03:21:52.027Z,1.50
2023-04-03T03:24:23.609Z,1.50
2023-04-03T03:26:55.422Z,1.40
2023-04-03T03:29:27.136Z,1.50
2023-04-03T03:31:59.017Z,1.40
2023-04-03T03:34:32.226Z,1.30
2023-04-03T03:37:04.062Z,1.40
2023-04-03T03:39:36.072Z,1.30
2023-04-03T03:42:07.986Z,1.40
2023-04-03T03:44:39.795Z,1.40
2023-04-03T03:47:12.011Z,1.50
2023-04-03T03:49:45.067Z,1.50
2023-04-03T03:52:17.034Z,1.50
2023-04-03T03:54:48.856Z,1.40
2023-04-03T03:57:22.300Z,1.30
2023-04-03T03:59:54.211Z,1.30
2023-04-03T04:02:26.155Z,1.20
2023-04-03T04:04:59.156Z,1.20
2023-04-03T04:07:30.814Z,1.20
2023-04-03T04:10:02.708Z,1.20
2023-04-03T04:12:36.479Z,1.10
2023-04-03T04:15:09.072Z,1.00
2023-04-03T04:17:40.810Z,1.10
2023-04-03T04:20:13.847Z,1.10
2023-04-03T04:22:45.723Z,1.10
2023-04-03T04:25:17.569Z,1.10
2023-04-03T04:27:49.364Z,0.90
2023-04-03T04:30:21.237Z,0.90
2023-04-03T04:32:53.026Z,0.90
2023-04-03T04:35:26.313Z,1.10
2023-04-03T04:37:58.137Z,1.00
2023-04-03T04:40:31.113Z,0.90
2023-04-03T04:43:02.971Z,0.90
2023-04-03T04:45:35.000Z,0.90
2023-04-03T04:48:07.100Z,0.90
2023-04-03T04:50:40.412Z,0.90
2023-04-03T04:53:12.215Z,1.00
2023-04-03T04:55:44.130Z,1.00
2023-04-03T04:58:16.127Z,1.00
2023-04-03T05:00:48.448Z,0.90
2023-04-03T05:03:20.427Z,1.00
2023-04-03T05:05:53.674Z,1.00
2023-04-03T05:08:25.561Z,1.10
2023-04-03T05:10:57.520Z,1.10
2023-04-03T05:13:29.191Z,1.00
2023-04-03T05:16:01.107Z,1.00
2023-04-03T05:18:33.028Z,1.00
2023-04-03T05:21:06.578Z,0.90
2023-04-03T05:23:38.157Z,0.80
2023-04-03T05:26:10.197Z,0.80
2023-04-03T05:28:42.043Z,0.90
2023-04-03T05:31:15.000Z,0.90
2023-04-03T05:33:47.034Z,1.30
2023-04-03T05:36:20.133Z,0.80
2023-04-03T05:38:52.246Z,0.90
2023-04-03T05:41:24.352Z,0.80
2023-04-03T05:43:55.880Z,0.80
2023-04-03T05:46:27.794Z,0.80
2023-04-03T05:48:59.571Z,0.80
2023-04-03T05:51:38.609Z,0.80
2023-04-03T05:54:18.343Z,0.80
2023-04-03T05:56:50.170Z,0.80
2023-04-03T05:59:23.413Z,0.80
2023-04-03T06:01:55.380Z,0.70
2023-04-03T06:04:27.421Z,0.80
2023-04-03T06:07:01.907Z,0.70
2023-04-03T06:09:34.209Z,0.70
2023-04-03T06:12:06.078Z,0.80
2023-04-03T06:14:37.882Z,0.80
2023-04-03T06:17:10.287Z,0.90
2023-04-03T06:19:43.973Z,0.90
2023-04-03T06:22:18.436Z,0.90
2023-04-03T06:24:51.682Z,0.90
2023-04-03T06:27:23.637Z,1.00
2023-04-03T06:29:56.668Z,1.00
2023-04-03T06:32:28.832Z,1.00
2023-04-03T06:35:01.133Z,1.10
2023-04-03T06:37:34.065Z,1.10
2023-04-03T06:40:06.395Z,1.10
2023-04-03T06:42:38.078Z,1.20
2023-04-03T06:45:12.312Z,1.20
2023-04-03T06:47:44.301Z,1.30
2023-04-03T06:50:18.110Z,1.30
2023-04-03T06:52:51.395Z,1.40
2023-04-03T06:55:23.910Z,1.50
2023-04-03T06:57:56.179Z,1.50
2023-04-03T07:00:28.685Z,1.50
2023-04-03T07:03:00.571Z,1.60
2023-04-03T07:05:33.953Z,1.60
2023-04-03T07:08:07.284Z,1.70
2023-04-03T07:10:39.921Z,1.80
2023-04-03T07:13:11.925Z,1.80
2023-04-03T07:15:43.842Z,1.90
2023-04-03T07:18:17.903Z,2.00
2023-04-03T07:20:49.754Z,2.10
2023-04-03T07:23:23.764Z,2.10
2023-04-03T07:25:56.669Z,2.20
2023-04-03T07:28:29.274Z,2.20
2023-04-03T07:31:09.486Z,2.30
2023-04-03T07:33:42.711Z,2.40
2023-04-03T07:36:19.693Z,2.50
2023-04-03T07:38:52.966Z,2.50
2023-04-03T07:41:25.890Z,2.60
2023-04-03T07:43:57.765Z,2.80
2023-04-03T07:46:29.603Z,2.90
2023-04-03T07:49:01.494Z,2.90
2023-04-03T07:51:33.096Z,3.10
2023-04-03T07:54:06.131Z,3.10
2023-04-03T07:56:38.015Z,3.20
2023-04-03T07:59:12.391Z,3.40
2023-04-03T08:01:45.760Z,3.40
2023-04-03T08:04:17.662Z,3.50
2023-04-03T08:06:49.281Z,3.60
2023-04-03T08:09:23.098Z,3.60
2023-04-03T08:11:55.312Z,3.70
2023-04-03T08:14:28.553Z,3.70
2023-04-03T08:17:00.440Z,3.70
2023-04-03T08:19:33.068Z,3.80
2023-04-03T08:22:05.893Z,3.90
2023-04-03T08:24:39.381Z,4.00
2023-04-03T08:27:16.046Z,4.10
2023-04-03T08:29:47.929Z,4.10
2023-04-03T08:32:19.947Z,4.20
2023-04-03T08:34:54.086Z,4.20
2023-04-03T08:37:26.367Z,4.20
2023-04-03T08:40:00.180Z,4.30
2023-04-03T08:42:47.260Z,4.40
2023-04-03T08:45:29.520Z,4.50
2023-04-03T08:48:09.282Z,4.60
2023-04-03T08:50:47.415Z,4.70
2023-04-03T08:53:24.838Z,4.80
2023-04-03T08:56:00.366Z,4.80
2023-04-03T08:58:37.662Z,5.00
2023-04-03T09:01:21.087Z,5.00
2023-04-03T09:03:53.127Z,5.20
2023-04-03T09:06:30.093Z,5.20
2023-04-03T09:09:15.985Z,5.30
2023-04-03T09:12:02.242Z,5.40
2023-04-03T09:14:47.169Z,5.50
2023-04-03T09:17:29.838Z,5.70
2023-04-03T09:20:20.688Z,5.70
2023-04-03T09:22:53.870Z,5.80
2023-04-03T09:25:30.586Z,6.00
2023-04-03T09:28:10.665Z,6.20
2023-04-03T09:30:42.381Z,6.30
2023-04-03T09:33:16.157Z,6.30
2023-04-03T09:35:49.489Z,6.40
2023-04-03T09:38:23.924Z,6.40
2023-04-03T09:41:09.231Z,6.50
2023-04-03T09:43:56.807Z,6.60
2023-04-03T09:46:38.005Z,6.70
2023-04-03T09:49:15.083Z,6.70
2023-04-03T09:51:46.717Z,6.70
2023-04-03T09:54:36.925Z,6.70
2023-04-03T09:57:18.722Z,6.50
2023-04-03T10:00:05.635Z,6.30
2023-04-03T10:02:45.788Z,6.20
2023-04-03T10:05:37.457Z,6.20
2023-04-03T10:08:28.807Z,6.40
2023-04-03T10:11:14.321Z,6.30
2023-04-03T10:14:02.560Z,6.50
2023-04-03T10:16:44.552Z,6.80
2023-04-03T10:19:35.769Z,7.00
2023-04-03T10:22:29.501Z,7.10
2023-04-03T10:25:09.871Z,7.30
2023-04-03T10:27:54.356Z,7.40
2023-04-03T10:30:38.611Z,7.30
2023-04-03T10:33:29.853Z,7.10
2023-04-03T10:36:19.248Z,7.00
2023-04-03T10:39:04.255Z,6.80
2023-04-03T10:41:54.156Z,6.70
2023-04-03T10:44:45.016Z,6.70
2023-04-03T10:47:27.321Z,6.60
2023-04-03T10:50:17.988Z,6.50
2023-04-03T10:52:59.636Z,6.50
2023-04-03T10:55:45.072Z,6.50
2023-04-03T10:58:29.803Z,6.50
2023-04-03T11:01:08.209Z,6.50
2023-04-03T11:03:46.396Z,6.50
2023-04-03T11:06:25.413Z,6.70
2023-04-03T11:09:04.580Z,6.70
2023-04-03T11:11:41.842Z,6.70
2023-04-03T11:14:26.620Z,6.70
2023-04-03T11:17:13.207Z,6.70
2023-04-03T11:19:53.668Z,6.90
2023-04-03T11:22:34.987Z,7.30
2023-04-03T11:25:22.800Z,7.50
2023-04-03T11:28:00.403Z,7.90
2023-04-03T11:30:42.960Z,8.10
2023-04-03T11:33:43.826Z,8.00
2023-04-03T11:36:32.198Z,7.90
2023-04-03T11:39:18.750Z,7.60
2023-04-03T11:41:57.533Z,7.50
2023-04-03T11:44:39.891Z,7.60
2023-04-03T11:47:13.284Z,7.60
2023-04-03T11:50:06.622Z,7.80
2023-04-03T11:53:04.983Z,8.00
2023-04-03T11:56:00.838Z,8.10
2023-04-03T11:58:32.807Z,8.10
2023-04-03T12:01:13.582Z,8.00
2023-04-03T12:04:16.727Z,8.00
2023-04-03T12:07:20.771Z,7.90
2023-04-03T12:10:32.201Z,8.00
2023-04-03T12:13:17.876Z,7.80
2023-04-03T12:15:58.121Z,8.00
2023-04-03T12:19:01.024Z,8.10
2023-04-03T12:22:16.674Z,8.50
2023-04-03T12:24:51.160Z,8.80
2023-04-03T12:27:44.299Z,9.00
2023-04-03T12:30:33.703Z,8.90
2023-04-03T12:33:26.256Z,8.80
2023-04-03T12:36:09.767Z,8.70
2023-04-03T12:39:06.266Z,8.50
2023-04-03T12:41:52.657Z,8.40
2023-04-03T12:44:39.900Z,8.50
2023-04-03T12:47:26.320Z,8.70
2023-04-03T12:49:59.530Z,9.00
2023-04-03T12:52:41.819Z,8.80
2023-04-03T12:55:21.089Z,8.70
2023-04-03T12:57:52.893Z,8.60
2023-04-03T13:00:40.549Z,8.50
2023-04-03T13:03:28.762Z,8.50
2023-04-03T13:06:04.657Z,8.50
2023-04-03T13:08:36.835Z,8.50
2023-04-03T13:11:13.850Z,8.40
2023-04-03T13:13:56.554Z,8.20
2023-04-03T13:16:28.880Z,8.30
2023-04-03T13:19:02.173Z,8.80
2023-04-03T13:21:38.939Z,9.10
2023-04-03T13:24:15.726Z,9.40
2023-04-03T13:26:48.630Z,9.60
2023-04-03T13:29:32.132Z,9.80
2023-04-03T13:32:07.977Z,9.80
2023-04-03T13:34:47.563Z,10.00
2023-04-03T13:37:27.213Z,10.20
2023-04-03T13:40:14.694Z,10.30
2023-04-03T13:42:49.131Z,10.50
2023-04-03T13:45:30.000Z,10.30
2023-04-03T13:48:23.948Z,10.40
2023-04-03T13:51:00.449Z,10.40
2023-04-03T13:53:34.929Z,10.20
2023-04-03T13:56:18.959Z,10.00
2023-04-03T13:59:05.093Z,9.70
2023-04-03T14:01:45.980Z,9.40
2023-04-03T14:04:25.636Z,9.70
2023-04-03T14:06:59.282Z,10.10
2023-04-03T14:09:32.336Z,10.40
2023-04-03T14:12:17.977Z,10.40
2023-04-03T14:14:57.854Z,10.60
2023-04-03T14:17:32.040Z,10.70
2023-04-03T14:20:05.037Z,11.00
2023-04-03T14:22:38.719Z,10.90
2023-04-03T14:25:12.123Z,10.40
2023-04-03T14:27:49.742Z,10.20
2023-04-03T14:30:26.922Z,10.00
2023-04-03T14:33:01.017Z,9.80
2023-04-03T14:35:33.316Z,9.50
2023-04-03T14:38:14.790Z,9.90
2023-04-03T14:40:46.416Z,10.10
2023-04-03T14:43:20.959Z,10.10
2023-04-03T14:45:53.315Z,9.80
2023-04-03T14:48:30.421Z,9.50
2023-04-03T14:51:05.728Z,9.80
2023-04-03T14:53:39.562Z,10.30
2023-04-03T14:56:22.816Z,10.20
2023-04-03T14:58:57.736Z,10.60
2023-04-03T15:01:30.935Z,10.70
2023-04-03T15:04:02.989Z,10.80
2023-04-03T15:06:36.412Z,10.80
2023-04-03T15:09:20.186Z,11.00
2023-04-03T15:11:56.081Z,10.90
2023-04-03T15:14:37.087Z,11.00
2023-04-03T15:17:21.535Z,11.00
2023-04-03T15:19:54.813Z,11.00
2023-04-03T15:22:26.731Z,10.60
2023-04-03T15:24:59.781Z,10.40
2023-04-03T15:27:31.562Z,10.20
2023-04-03T15:30:03.378Z,9.80
2023-04-03T15:32:36.072Z,9.50
2023-04-03T15:35:08.885Z,9.50
2023-04-03T15:37:40.766Z,9.50
2023-04-03T15:40:15.454Z,9.60
2023-04-03T15:42:47.511Z,9.50
2023-04-03T15:45:19.495Z,9.90
2023-04-03T15:47:51.640Z,10.10
2023-04-03T15:50:24.951Z,9.70
2023-04-03T15:52:58.781Z,9.70
2023-04-03T15:55:35.384Z,9.90
2023-04-03T15:58:07.384Z,10.10
2023-04-03T16:00:40.662Z,10.10
2023-04-03T16:03:18.290Z,9.90
2023-04-03T16:05:50.658Z,10.10
2023-04-03T16:08:23.838Z,9.80
2023-04-03T16:10:56.796Z,9.70
2023-04-03T16:13:28.614Z,9.60
2023-04-03T16:16:01.139Z,9.40
2023-04-03T16:18:36.030Z,9.70
2023-04-03T16:21:10.728Z,9.80
2023-04-03T16:23:42.690Z,9.80
2023-04-03T16:26:16.316Z,9.90
2023-04-03T16:28:48.021Z,9.70
2023-04-03T16:31:19.937Z,9.60
2023-04-03T16:33:51.905Z,9.40
2023-04-03T16:36:23.770Z,9.20
2023-04-03T16:38:55.819Z,9.30
2023-04-03T16:41:28.719Z,9.20
2023-04-03T16:44:00.586Z,9.00
2023-04-03T16:46:32.584Z,8.90
2023-04-03T16:49:04.567Z,8.90
2023-04-03T16:51:36.415Z,8.90
2023-04-03T16:54:10.660Z,8.80
2023-04-03T16:56:44.629Z,8.70
2023-04-03T16:59:18.422Z,8.70
2023-04-03T17:01:50.148Z,8.70
2023-04-03T17:04:21.919Z,8.60
2023-04-03T17:06:53.666Z,8.70
2023-04-03T17:09:25.813Z,8.70
2023-04-03T17:11:58.786Z,8.60
2023-04-03T17:14:30.493Z,8.50
2023-04-03T17:17:02.751Z,8.60
2023-04-03T17:19:34.862Z,8.50
2023-04-03T17:22:06.649Z,8.50
2023-04-03T17:24:38.516Z,8.40
2023-04-03T17:27:11.632Z,8.40
2023-04-03T17:29:43.379Z,8.30
2023-04-03T17:32:15.349Z,8.30
2023-04-03T17:34:49.064Z,8.20
2023-04-03T17:37:20.841Z,8.30
2023-04-03T17:39:52.845Z,8.30
2023-04-03T17:42:26.062Z,8.10
2023-04-03T17:44:58.035Z,8.10
2023-04-03T17:47:29.911Z,8.00
2023-04-03T17:50:02.099Z,8.00
2023-04-03T17:52:34.026Z,7.90
2023-04-03T17:55:06.112Z,7.80
2023-04-03T17:57:39.486Z,7.80
2023-04-03T18:00:11.849Z,7.80
2023-04-03T18:02:44.061Z,7.70
2023-04-03T18:05:16.270Z,7.60
2023-04-03T18:07:48.064Z,7.60
2023-04-03T18:10:18.144Z,7.60
2023-04-03T18:12:52.959Z,7.60
2023-04-03T18:15:24.793Z,7.50
2023-04-03T18:17:57.932Z,7.50
2023-04-03T18:20:29.930Z,7.50
2023-04-03T18:23:02.363Z,7.40
2023-04-03T18:25:34.250Z,7.40
2023-04-03T18:28:08.495Z,7.40
2023-04-03T18:30:40.773Z,7.40
2023-04-03T18:33:12.757Z,7.20
2023-04-03T18:35:44.864Z,7.10
2023-04-03T18:38:16.609Z,7.10
2023-04-03T18:40:50.071Z,7.10
2023-04-03T18:43:23.926Z,7.10
2023-04-03T18:45:56.864Z,7.00
2023-04-03T18:48:30.721Z,7.00
2023-04-03T18:51:03.278Z,6.90
2023-04-03T18:53:35.215Z,6.90
2023-04-03T18:56:07.750Z,6.80
2023-04-03T18:58:40.808Z,6.70
2023-04-03T19:01:12.440Z,6.70
2023-04-03T19:03:44.726Z,6.60
2023-04-03T19:06:16.856Z,6.60
2023-04-03T19:08:49.538Z,6.50
2023-04-03T19:11:21.133Z,6.40
2023-04-03T19:14:10.189Z,6.50
2023-04-03T19:16:46.328Z,6.50
2023-04-03T19:19:18.014Z,6.40
2023-04-03T19:21:49.855Z,6.50
2023-04-03T19:24:22.154Z,6.40
2023-04-03T19:26:54.136Z,6.50
2023-04-03T19:29:27.110Z,6.50
2023-04-03T19:31:58.974Z,6.40
2023-04-03T19:34:30.883Z,6.40
2023-04-03T19:37:02.878Z,6.40
2023-04-03T19:39:37.820Z,6.30
2023-04-03T19:42:10.352Z,6.20
2023-04-03T19:44:43.780Z,6.20
2023-04-03T19:47:16.286Z,6.10
2023-04-03T19:49:48.041Z,6.10
2023-04-03T19:52:19.994Z,6.10
2023-04-03T19:54:52.998Z,5.90
2023-04-03T19:57:26.964Z,5.80
2023-04-03T20:00:01.008Z,5.70
2023-04-03T20:02:32.660Z,5.70
2023-04-03T20:05:05.210Z,5.60
2023-04-03T20:07:37.406Z,5.40
2023-04-03T20:10:13.863Z,5.40
2023-04-03T20:12:46.254Z,5.30
2023-04-03T20:15:19.485Z,5.30
2023-04-03T20:17:51.328Z,5.30
2023-04-03T20:20:23.410Z,5.30
2023-04-03T20:22:56.976Z,5.20
2023-04-03T20:25:46.177Z,5.20
2023-04-03T20:28:23.942Z,5.20
2023-04-03T20:30:58.854Z,5.20
2023-04-03T20:33:30.562Z,5.20
2023-04-03T20:36:04.121Z,5.20
2023-04-03T20:38:36.353Z,5.20
2023-04-03T20:41:08.416Z,5.20
2023-04-03T20:43:42.659Z,5.10
2023-04-03T20:46:19.449Z,5.10
2023-04-03T20:48:51.342Z,5.10
2023-04-03T20:51:24.196Z,5.10
2023-04-03T20:53:56.720Z,4.90
2023-04-03T20:56:31.634Z,4.80
2023-04-03T20:59:04.702Z,4.70
2023-04-03T21:01:38.489Z,4.80
2023-04-03T21:04:16.985Z,4.80
2023-04-03T21:07:41.364Z,4.80
2023-04-03T21:11:05.402Z,4.60
2023-04-03T21:14:31.641Z,4.50
2023-04-03T21:16:59.436Z,4.50
2023-04-03T21:19:33.062Z,4.40
2023-04-03T21:22:05.191Z,4.50
2023-04-03T21:24:39.110Z,4.50
2023-04-03T21:27:11.341Z,4.60
2023-04-03T21:29:43.642Z,4.50
2023-04-03T21:32:15.571Z,4.40
2023-04-03T21:34:48.786Z,4.40
2023-04-03T21:37:21.617Z,4.40
2023-04-03T21:39:53.414Z,4.30
2023-04-03T21:42:25.281Z,4.30
2023-04-03T21:44:58.204Z,4.30
2023-04-03T21:47:30.178Z,4.30
2023-04-03T21:50:03.360Z,4.20
2023-04-03T21:52:37.108Z,4.20
2023-04-03T21:55:10.360Z,4.10
2023-04-03T21:57:42.463Z,4.20
2023-04-03T22:00:18.897Z,4.20
2023-04-03T22:02:55.076Z,4.10
2023-04-03T22:05:35.818Z,4.10
2023-04-03T22:08:09.458Z,4.00
2023-04-03T22:10:41.827Z,4.00
2023-04-03T22:13:13.831Z,3.90
2023-04-03T22:15:48.130Z,3.90
2023-04-03T22:18:19.806Z,3.80
2023-04-03T22:20:52.853Z,3.70
2023-04-03T22:23:24.792Z,3.60
2023-04-03T22:26:01.148Z,3.60
2023-04-03T22:28:34.837Z,3.60
2023-04-03T22:31:08.373Z,3.60
2023-04-03T22:33:44.315Z,3.60
2023-04-03T22:36:18.294Z,3.60
2023-04-03T22:38:50.384Z,3.60
2023-04-03T22:41:22.185Z,3.60
2023-04-03T22:43:54.601Z,3.50
2023-04-03T22:46:26.725Z,3.50
2023-04-03T22:48:58.803Z,3.40
2023-04-03T22:51:32.032Z,3.30
2023-04-03T22:54:04.108Z,3.30
2023-04-03T22:56:35.659Z,3.40
2023-04-03T22:59:08.085Z,3.30
2023-04-03T23:01:40.213Z,3.20
2023-04-03T23:04:12.281Z,3.30
2023-04-03T23:06:45.501Z,3.40
2023-04-03T23:09:17.876Z,3.30
2023-04-03T23:11:49.397Z,3.20
2023-04-03T23:14:21.978Z,3.20
2023-04-03T23:16:53.678Z,3.10
2023-04-03T23:19:25.343Z,3.00
2023-04-03T23:21:58.464Z,3.00
2023-04-03T23:24:30.274Z,3.00
2023-04-03T23:27:02.625Z,3.00
2023-04-03T23:29:34.498Z,2.90
2023-04-03T23:32:06.717Z,2.90
2023-04-03T23:34:40.142Z,2.90
2023-04-03T23:37:16.349Z,2.80
2023-04-03T23:39:48.217Z,2.90
2023-04-03T23:42:20.084Z,2.90
2023-04-03T23:44:51.923Z,2.70
2023-04-03T23:47:23.762Z,2.60
2023-04-03T23:49:55.764Z,2.80
2023-04-03T23:52:28.970Z,2.80
2023-04-03T23:55:00.891Z,2.70
2023-04-03T23:57:32.715Z,2.70
